Time;durP1;ratioP1;P1;durP2;ratioP2;P2;SDS_P1;SDS_P2;PMS_P1;PMS_P2;Temp;Humidity;BMP_temperature;BMP_pressure;BME280_temperature;BME280_humidity;BME280_pressure;Samples;Min_cycle;Max_cycle;Signal;HPM_P1;HPM_P2
2023/09/12 00:01:14;;;;;;;2.72;1.83;;;;;;;15.20;88.45;94910.00;5600102;23;20062;-91
2023/09/12 00:03:39;;;;;;;2.60;1.88;;;;;;;15.01;90.36;94900.34;4975053;28;20030;-92
2023/09/12 00:06:05;;;;;;;4.35;2.08;;;;;;;15.83;82.82;94905.97;4961532;28;20030;-88
2023/09/12 00:08:30;;;;;;;3.78;1.90;;;;;;;15.78;82.56;94903.97;4970907;28;20101;-91
2023/09/12 00:11:03;;;;;;;5.68;1.90;;;;;;;15.59;85.00;94909.22;4989714;28;20014;-88
2023/09/12 00:13:29;;;;;;;2.78;2.00;;;;;;;15.16;86.84;94914.00;4989080;28;20117;-90
2023/09/12 00:15:54;;;;;;;4.93;1.90;;;;;;;15.13;86.73;94920.44;4975310;28;20038;-86
2023/09/12 00:18:20;;;;;;;2.90;2.00;;;;;;;15.29;84.90;94919.22;5255164;23;20861;-87
2023/09/12 00:20:45;;;;;;;5.95;1.80;;;;;;;15.05;86.93;94917.22;4946360;28;20441;-86
2023/09/12 00:23:11;;;;;;;6.63;2.05;;;;;;;15.18;87.17;94918.03;5433507;23;20051;-87
2023/09/12 00:25:36;;;;;;;3.80;1.95;;;;;;;15.23;87.74;94926.06;4972205;28;20503;-92
2023/09/12 00:28:02;;;;;;;4.38;1.98;;;;;;;15.30;88.09;94926.88;4973758;28;20053;-89
2023/09/12 00:30:27;;;;;;;3.65;2.45;;;;;;;14.42;94.95;94921.03;4977510;28;20027;-92
2023/09/12 00:35:27;;;;;;;4.07;2.38;;;;;;;13.77;100.00;94931.91;5576981;23;20051;-91
2023/09/12 00:37:53;;;;;;;4.68;2.28;;;;;;;13.81;100.00;94933.94;4973065;28;20038;-93
2023/09/12 00:40:18;;;;;;;5.10;2.40;;;;;;;13.82;100.00;94932.13;4973108;28;20105;-90
2023/09/12 00:42:44;;;;;;;3.25;2.17;;;;;;;13.76;100.00;94936.31;4973744;28;20019;-92
2023/09/12 00:45:09;;;;;;;4.88;2.50;;;;;;;13.75;100.00;94932.09;4971305;28;20322;-92
2023/09/12 00:47:36;;;;;;;4.07;2.63;;;;;;;13.65;100.00;94936.81;4969991;28;20369;-93
2023/09/12 00:50:02;;;;;;;5.78;2.42;;;;;;;13.56;100.00;94936.19;4956267;28;20042;-92
2023/09/12 01:15:44;;;;;;;4.57;3.40;;;;;;;12.36;100.00;94962.16;5953919;23;20043;-88
2023/09/12 01:18:11;;;;;;;3.15;2.67;;;;;;;12.40;100.00;94959.00;5006880;28;20480;-86
2023/09/12 01:28:42;;;;;;;4.78;3.38;;;;;;;12.36;100.00;94957.75;6054299;23;20751;-88
2023/09/12 01:31:08;;;;;;;4.15;3.20;;;;;;;12.31;100.00;94967.88;4986671;28;20054;-86
2023/09/12 01:33:34;;;;;;;3.92;3.00;;;;;;;12.18;100.00;94964.31;4998291;28;20026;-87
2023/09/12 01:35:59;;;;;;;3.67;3.38;;;;;;;12.27;100.00;94968.41;5016491;28;20053;-86
2023/09/12 01:38:24;;;;;;;5.75;2.97;;;;;;;12.41;100.00;94968.41;5153114;23;20093;-86
2023/09/12 01:40:51;;;;;;;4.18;3.28;;;;;;;12.24;100.00;94971.38;4990856;28;20034;-85
2023/09/12 01:43:19;;;;;;;3.65;2.40;;;;;;;12.32;100.00;94971.28;5673867;23;20043;-88
2023/09/12 01:45:45;;;;;;;3.65;2.80;;;;;;;12.32;100.00;94971.28;4965152;28;20114;-87
2023/09/12 01:48:11;;;;;;;3.47;2.67;;;;;;;12.38;100.00;94975.75;4966970;28;20035;-87
2023/09/12 01:50:37;;;;;;;4.70;2.70;;;;;;;12.27;100.00;94978.81;4972143;28;20033;-86
2023/09/12 01:53:03;;;;;;;4.18;2.90;;;;;;;12.19;100.00;94973.72;5245633;23;20005;-83
2023/09/12 02:26:35;;;;;;;3.28;2.50;;;;;;;11.83;100.00;94991.78;6022677;23;20361;-83
2023/09/12 02:31:43;;;;;;;3.72;2.80;;;;;;;11.93;100.00;95000.13;6030453;23;20040;-88
2023/09/12 02:34:09;;;;;;;3.53;2.40;;;;;;;11.88;100.00;95002.44;5428745;23;20036;-85
2023/09/12 04:34:43;;;;;;;3.25;2.92;;;;;;;12.15;100.00;95023.41;5961261;23;20174;-88
2023/09/12 04:37:08;;;;;;;2.90;2.50;;;;;;;12.19;100.00;95023.06;4982230;28;20038;-87
2023/09/12 04:39:34;;;;;;;6.00;2.42;;;;;;;12.25;100.00;95027.53;4975147;28;20396;-88
2023/09/12 04:41:59;;;;;;;4.15;2.45;;;;;;;12.42;100.00;95013.38;4976393;28;20050;-89
2023/09/12 04:44:25;;;;;;;9.13;2.92;;;;;;;12.63;100.00;95016.03;4956475;28;20023;-93
2023/09/12 04:46:50;;;;;;;28.27;3.83;;;;;;;12.93;100.00;95006.41;4971797;28;20501;-93
2023/09/12 04:49:16;;;;;;;3.58;3.08;;;;;;;13.48;100.00;94997.97;4972624;28;20033;-92
2023/09/12 04:51:42;;;;;;;6.03;2.47;;;;;;;15.49;100.00;94987.13;4971685;28;20089;-87
2023/09/12 04:54:08;;;;;;;4.22;2.38;;;;;;;17.31;92.00;94973.78;4971985;28;20054;-90
2023/09/12 04:56:33;;;;;;;4.80;2.30;;;;;;;18.17;83.93;94974.72;4972072;28;20061;-89
2023/09/12 04:58:59;;;;;;;5.50;1.85;;;;;;;19.45;76.50;94978.06;4993419;28;20057;-90
2023/09/12 05:01:25;;;;;;;3.10;1.83;;;;;;;19.77;73.91;94976.78;4959784;28;20098;-86
2023/09/12 05:03:51;;;;;;;3.05;1.80;;;;;;;20.92;68.33;94971.66;4975337;28;20028;-87
2023/09/12 05:06:16;;;;;;;3.25;1.67;;;;;;;21.01;67.28;94978.16;4976034;28;20026;-87
2023/09/12 05:08:42;;;;;;;4.72;1.30;;;;;;;21.17;69.56;94977.44;4974678;28;20496;-85
2023/09/12 05:11:07;;;;;;;3.05;1.67;;;;;;;21.47;72.25;94983.25;4960134;28;20023;-87
2023/09/12 05:13:33;;;;;;;3.47;1.55;;;;;;;21.12;72.05;94979.19;4974460;28;20018;-87
2023/09/12 05:15:58;;;;;;;3.33;1.63;;;;;;;21.04;70.70;94978.47;4993162;28;20346;-89
2023/09/12 05:18:24;;;;;;;1.40;1.20;;;;;;;21.17;69.14;94985.34;4991934;28;20045;-88
2023/09/12 05:20:49;;;;;;;1.50;1.38;;;;;;;21.25;69.59;94979.69;4975437;28;20026;-88
2023/09/12 05:23:15;;;;;;;4.35;1.30;;;;;;;21.30;69.78;94982.41;4975400;28;20512;-85
2023/09/12 05:25:40;;;;;;;2.95;1.52;;;;;;;21.57;68.62;94979.19;4974498;28;20037;-89
2023/09/12 05:28:06;;;;;;;7.72;1.27;;;;;;;21.47;69.01;94982.47;4975920;28;20505;-90
2023/09/12 05:30:31;;;;;;;1.83;1.30;;;;;;;21.97;66.19;94980.69;4974946;28;20022;-90
2023/09/12 05:32:57;;;;;;;1.45;1.10;;;;;;;21.59;67.96;94983.19;4975995;28;20038;-89
2023/09/12 05:35:22;;;;;;;3.20;1.10;;;;;;;21.78;68.86;94983.75;4992252;28;20542;-90
2023/09/12 05:37:48;;;;;;;2.03;1.20;;;;;;;22.34;66.23;94985.47;4973836;28;20117;-90
2023/09/12 05:40:13;;;;;;;3.72;1.10;;;;;;;22.15;67.32;94990.19;4974221;28;20030;-90
2023/09/12 05:42:39;;;;;;;2.78;1.05;;;;;;;22.37;65.73;94987.59;4957649;28;20065;-91
2023/09/12 05:45:05;;;;;;;4.30;1.30;;;;;;;22.00;66.91;94992.59;4974560;28;20089;-90
2023/09/12 05:47:31;;;;;;;2.67;1.10;;;;;;;22.46;65.96;94992.22;4973378;28;20027;-89
2023/09/12 05:49:59;;;;;;;1.83;1.20;;;;;;;22.97;62.70;94987.63;4974319;28;20036;-91
2023/09/12 05:52:24;;;;;;;1.75;1.05;;;;;;;23.51;59.86;94986.66;4957818;28;20034;-89
2023/09/12 05:54:50;;;;;;;5.43;1.23;;;;;;;23.49;61.34;94986.13;4991129;28;20040;-90
2023/09/12 05:57:15;;;;;;;2.50;0.90;;;;;;;23.20;61.21;94987.38;4973981;28;20030;-90
2023/09/12 05:59:41;;;;;;;5.72;1.10;;;;;;;23.00;62.30;94984.47;4973065;28;20030;-90
2023/09/12 06:02:09;;;;;;;2.63;0.90;;;;;;;23.26;62.81;94991.66;4958469;28;20062;-91
2023/09/12 06:04:34;;;;;;;;;;;;;;;22.82;64.30;94988.25;4973715;28;20105;-90
2023/09/12 06:07:01;;;;;;;3.17;0.80;;;;;;;22.97;63.25;94984.97;4991577;28;20368;-91
2023/09/12 06:09:27;;;;;;;1.10;0.88;;;;;;;22.94;63.04;94988.13;4972153;28;20415;-92
2023/09/12 06:11:52;;;;;;;4.20;0.80;;;;;;;24.01;58.38;94994.25;4991269;28;20109;-92
2023/09/12 06:14:18;;;;;;;0.77;0.70;;;;;;;27.62;47.38;94993.38;4991099;28;20060;-91
2023/09/12 06:16:43;;;;;;;1.35;0.80;;;;;;;28.18;43.86;95001.00;4973516;28;20557;-91
2023/09/12 06:19:08;;;;;;;2.13;0.97;;;;;;;29.05;40.40;94996.44;4957173;28;20030;-90
2023/09/12 06:21:34;;;;;;;1.15;0.77;;;;;;;29.81;38.90;94994.34;4972942;28;20273;-87
2023/09/12 06:24:13;;;;;;;1.80;0.93;;;;;;;30.39;37.98;94998.53;4991100;28;20029;-91
2023/09/12 06:26:39;;;;;;;2.33;0.70;;;;;;;30.69;37.43;94993.50;4990112;28;20033;-92
2023/09/12 06:29:05;;;;;;;2.47;0.52;;;;;;;28.92;37.77;94997.13;4957746;28;20085;-95
2023/09/12 06:31:31;;;;;;;0.95;0.70;;;;;;;30.75;36.38;94997.66;4973052;28;20038;-93
2023/09/12 06:33:56;;;;;;;1.47;1.00;;;;;;;31.63;35.62;94998.34;4973009;28;20217;-91
2023/09/12 06:36:23;;;;;;;1.53;0.87;;;;;;;32.42;34.94;95004.81;4973066;28;20069;-93
2023/09/12 06:38:49;;;;;;;1.58;0.88;;;;;;;32.04;33.79;95003.63;4972947;28;20038;-91
2023/09/12 06:41:14;;;;;;;2.20;0.80;;;;;;;31.31;34.81;95002.72;4974011;28;20029;-92
2023/09/12 06:43:40;;;;;;;1.33;1.00;;;;;;;32.40;33.36;95006.22;4972440;28;20027;-92
2023/09/12 06:46:06;;;;;;;4.90;0.87;;;;;;;33.66;32.55;95009.00;4973265;28;20027;-86
2023/09/12 06:48:31;;;;;;;3.60;0.73;;;;;;;32.86;32.89;95002.06;4972401;28;20074;-90
2023/09/12 06:50:56;;;;;;;1.50;1.10;;;;;;;32.96;32.67;95000.22;4972536;28;20034;-88
2023/09/12 06:53:22;;;;;;;3.20;0.87;;;;;;;33.58;32.39;94992.81;4972470;28;20364;-90
2023/09/12 06:55:47;;;;;;;2.33;0.80;;;;;;;34.37;30.35;94996.03;4989665;28;20032;-90
2023/09/12 06:58:13;;;;;;;1.30;0.50;;;;;;;33.88;31.27;95003.47;4956800;28;20035;-91
2023/09/12 07:00:38;;;;;;;0.67;0.67;;;;;;;33.97;30.12;94994.63;4989959;28;20034;-90
2023/09/12 07:03:04;;;;;;;2.07;0.73;;;;;;;34.38;30.18;95003.78;4956645;28;20038;-86
2023/09/12 07:05:29;;;;;;;3.30;0.90;;;;;;;34.96;29.97;95001.59;4955619;28;20034;-86
2023/09/12 07:07:55;;;;;;;1.13;0.73;;;;;;;35.47;28.70;94998.66;4956585;28;20114;-86
2023/09/12 07:10:20;;;;;;;5.20;0.73;;;;;;;33.17;31.04;95007.41;4990229;28;20030;-93
2023/09/12 07:12:46;;;;;;;3.30;0.93;;;;;;;35.26;29.40;94997.81;4972056;28;20058;-88
2023/09/12 07:15:11;;;;;;;2.30;1.00;;;;;;;35.59;28.35;95006.88;4972227;28;20471;-89
2023/09/12 07:17:36;;;;;;;1.00;0.70;;;;;;;35.36;29.41;94997.44;4971049;28;20550;-85
2023/09/12 07:20:02;;;;;;;2.70;0.83;;;;;;;35.99;28.91;94996.44;4989092;28;20057;-89
2023/09/12 07:22:28;;;;;;;5.03;1.00;;;;;;;35.92;28.57;95002.34;4971580;28;20504;-90
2023/09/12 07:24:54;;;;;;;2.70;0.83;;;;;;;36.30;28.31;95004.13;4972122;28;20027;-90
2023/09/12 07:27:19;;;;;;;1.60;0.88;;;;;;;35.45;28.34;94998.97;4955184;28;20026;-90
2023/09/12 07:29:44;;;;;;;2.33;0.70;;;;;;;36.47;28.21;95001.25;4972414;28;20038;-90
2023/09/12 07:32:10;;;;;;;0.63;0.63;;;;;;;35.96;29.08;95000.56;4971496;28;20046;-90
2023/09/12 07:34:37;;;;;;;2.65;0.95;;;;;;;33.81;30.54;95000.44;4971932;28;20519;-87
2023/09/12 07:37:03;;;;;;;1.05;0.75;;;;;;;32.24;32.67;94995.06;4989182;28;20033;-90
2023/09/12 07:39:28;;;;;;;1.70;0.77;;;;;;;28.99;37.92;94998.38;4971428;28;20034;-89
2023/09/12 07:41:54;;;;;;;1.17;1.00;;;;;;;28.25;39.73;94998.81;4972637;28;20122;-88
2023/09/12 07:44:20;;;;;;;2.08;1.00;;;;;;;28.39;40.37;95004.28;4988384;28;20026;-87
2023/09/12 07:46:46;;;;;;;2.53;1.08;;;;;;;27.64;40.42;95001.91;4989649;28;20433;-89
2023/09/12 07:49:11;;;;;;;1.38;1.00;;;;;;;27.52;42.24;94995.31;4970940;28;20117;-89
2023/09/12 07:51:37;;;;;;;1.13;0.82;;;;;;;25.99;42.29;94986.09;4956332;28;20061;-90
2023/09/12 07:54:02;;;;;;;1.25;0.80;;;;;;;26.05;43.77;94993.00;4989184;28;20515;-87
2023/09/12 07:56:28;;;;;;;2.15;1.10;;;;;;;27.07;42.39;94989.13;4988545;28;20488;-90
2023/09/12 07:58:55;;;;;;;1.88;0.90;;;;;;;26.93;43.11;94992.66;4972193;28;20026;-89
2023/09/12 08:01:21;;;;;;;1.73;1.02;;;;;;;27.60;42.38;94989.41;4970915;28;20072;-89
2023/09/12 08:03:46;;;;;;;2.20;0.85;;;;;;;27.06;42.39;94987.53;4972879;28;20088;-88
2023/09/12 08:06:13;;;;;;;1.35;0.82;;;;;;;27.31;42.38;94986.63;4971094;28;20030;-86
2023/09/12 08:08:38;;;;;;;1.40;0.82;;;;;;;27.29;42.16;94986.13;4989080;28;20029;-90
2023/09/12 08:11:05;;;;;;;2.67;0.90;;;;;;;27.10;42.58;94990.47;4971790;28;20050;-90
2023/09/12 08:13:31;;;;;;;1.95;0.82;;;;;;;27.35;42.62;94989.53;4957265;28;20060;-95
2023/09/12 08:15:56;;;;;;;3.08;1.10;;;;;;;27.57;43.14;94993.44;4971529;28;20030;-90
2023/09/12 08:18:28;;;;;;;2.55;1.10;;;;;;;26.89;43.09;94988.94;4956789;28;20121;-88
2023/09/12 08:20:53;;;;;;;2.38;0.90;;;;;;;27.53;42.22;94991.59;4989609;28;20045;-89
2023/09/12 08:23:18;;;;;;;2.08;1.23;;;;;;;27.81;42.35;94992.72;4987598;28;20034;-88
2023/09/12 08:25:44;;;;;;;2.85;1.30;;;;;;;27.77;41.36;94987.94;4988537;28;20026;-92
2023/09/12 08:28:09;;;;;;;3.22;1.17;;;;;;;28.04;41.24;94990.16;4987306;28;20088;-91
2023/09/12 08:30:35;;;;;;;2.50;1.30;;;;;;;27.94;40.95;94984.09;4989726;28;20052;-89
2023/09/12 08:33:03;;;;;;;5.15;1.40;;;;;;;28.00;41.32;94985.69;4970145;28;20026;-86
2023/09/12 08:35:28;;;;;;;5.60;1.08;;;;;;;28.15;40.61;94982.91;4970262;28;20038;-88
2023/09/12 08:37:53;;;;;;;3.05;1.20;;;;;;;27.94;40.93;94973.44;4956201;28;20156;-87
2023/09/12 08:40:19;;;;;;;1.67;1.10;;;;;;;28.16;41.44;94968.50;4971441;28;20516;-87
2023/09/12 08:42:45;;;;;;;2.38;1.17;;;;;;;28.15;40.89;94970.41;4990765;28;20022;-90
2023/09/12 08:45:18;;;;;;;3.75;1.55;;;;;;;28.06;40.34;94965.94;4991503;28;20072;-91
2023/09/12 08:47:46;;;;;;;3.10;1.50;;;;;;;28.32;40.73;94971.84;4971883;28;20353;-88
2023/09/12 08:50:14;;;;;;;2.03;1.30;;;;;;;28.45;40.22;94966.63;4958405;28;20054;-90
2023/09/12 08:52:41;;;;;;;2.10;1.20;;;;;;;27.28;41.11;94963.22;4994266;28;20026;-94
2023/09/12 08:55:07;;;;;;;4.70;1.48;;;;;;;28.17;41.44;94970.91;4976560;28;20397;-88
2023/09/12 08:57:33;;;;;;;4.65;1.33;;;;;;;28.46;41.34;94962.91;4973584;28;20110;-90
2023/09/12 09:00:05;;;;;;;1.67;1.23;;;;;;;27.24;40.49;94957.66;4957812;28;20030;-93
2023/09/12 09:02:31;;;;;;;2.08;1.00;;;;;;;27.45;41.12;94963.69;4972873;28;20030;-93
2023/09/12 09:04:58;;;;;;;1.63;1.25;;;;;;;28.16;40.61;94963.97;4975228;28;20033;-91
2023/09/12 09:07:23;;;;;;;1.67;1.25;;;;;;;28.93;39.90;94954.13;4956261;28;20100;-90
2023/09/12 09:09:51;;;;;;;1.50;1.40;;;;;;;29.08;39.53;94955.81;4956881;28;20022;-94
2023/09/12 09:12:16;;;;;;;4.53;1.35;;;;;;;29.16;40.25;94953.31;4973873;28;20104;-87
2023/09/12 09:14:42;;;;;;;2.00;1.27;;;;;;;29.40;39.96;94953.28;4977780;28;20485;-89
2023/09/12 09:17:11;;;;;;;5.05;1.20;;;;;;;29.11;39.76;94945.38;4989844;28;20381;-92
2023/09/12 09:19:43;;;;;;;;;;;;;;;29.03;39.63;94954.00;4971459;28;20463;-87
2023/09/12 09:22:09;;;;;;;3.85;1.23;;;;;;;29.52;40.19;94953.66;4974076;28;20000;-86
2023/09/12 09:24:34;;;;;;;6.00;1.63;;;;;;;28.94;39.01;94952.25;4954758;28;20129;-90
2023/09/12 09:27:00;;;;;;;3.92;1.63;;;;;;;29.63;39.54;94949.75;4955186;28;20022;-89
2023/09/12 09:29:31;;;;;;;2.85;1.50;;;;;;;29.54;38.86;94940.78;4976037;28;20541;-90
2023/09/12 09:31:58;;;;;;;3.00;1.42;;;;;;;29.75;39.14;94935.94;4976289;28;20023;-92
2023/09/12 09:34:24;;;;;;;3.08;1.60;;;;;;;30.08;39.12;94942.13;4958061;28;20018;-90
2023/09/12 09:36:54;;;;;;;2.22;1.40;;;;;;;29.91;38.17;94931.97;4989619;28;20057;-93
2023/09/12 09:39:21;;;;;;;2.17;1.50;;;;;;;29.62;38.34;94921.47;4970557;28;20082;-92
2023/09/12 09:41:51;;;;;;;5.20;1.70;;;;;;;30.16;38.46;94933.44;4971109;28;20500;-92
2023/09/12 09:44:16;;;;;;;3.65;1.90;;;;;;;29.56;38.95;94919.94;4958896;28;20376;-91
2023/09/12 09:46:46;;;;;;;3.03;1.80;;;;;;;30.25;38.73;94923.63;4974258;28;20026;-91
2023/09/12 09:49:15;;;;;;;2.50;2.03;;;;;;;30.08;37.27;94924.22;4958889;28;20117;-93
2023/09/12 09:51:45;;;;;;;3.80;1.90;;;;;;;30.08;36.99;94923.44;4974180;28;20026;-90
2023/09/12 09:54:11;;;;;;;3.38;2.45;;;;;;;29.30;36.01;94910.72;4974623;28;20041;-90
2023/09/12 09:56:52;;;;;;;5.82;2.33;;;;;;;30.27;36.15;94918.81;4959001;28;20077;-92
2023/09/12 09:59:20;;;;;;;3.92;2.05;;;;;;;30.06;35.86;94910.34;4974734;28;20535;-92
2023/09/12 10:01:46;;;;;;;7.55;2.40;;;;;;;29.76;36.04;94916.19;4975137;28;20141;-91
2023/09/12 10:04:12;;;;;;;4.50;2.33;;;;;;;29.98;36.13;94908.34;4974442;28;20439;-85
2023/09/12 10:06:39;;;;;;;4.47;2.20;;;;;;;30.61;35.75;94911.25;4959983;28;20058;-91
2023/09/12 10:09:14;;;;;;;2.50;1.80;;;;;;;30.75;36.57;94911.25;4959373;28;20490;-94
2023/09/12 10:11:41;;;;;;;4.43;2.80;;;;;;;30.02;34.01;94909.34;4974357;28;20060;-88
2023/09/12 10:14:07;;;;;;;3.97;2.53;;;;;;;28.61;33.84;94901.41;4973157;28;20031;-94
2023/09/12 10:16:35;;;;;;;4.32;2.33;;;;;;;28.61;34.21;94905.94;4973081;28;20416;-90
2023/09/12 10:19:20;;;;;;;6.78;2.65;;;;;;;29.00;34.50;94900.41;4957547;28;20026;-91
2023/09/12 10:21:49;;;;;;;4.28;2.42;;;;;;;28.80;33.47;94903.38;4972656;28;20058;-92
2023/09/12 10:24:15;;;;;;;4.20;2.70;;;;;;;28.41;35.39;94909.66;4973030;28;20048;-92
2023/09/12 10:26:44;;;;;;;6.28;2.53;;;;;;;28.94;34.32;94902.38;4972562;28;20092;-89
2023/09/12 10:29:12;;;;;;;6.47;2.60;;;;;;;28.69;33.72;94895.47;4973174;28;20032;-84
2023/09/12 10:31:37;;;;;;;8.05;3.10;;;;;;;29.02;34.39;94890.28;4973330;28;20038;-90
2023/09/12 10:34:06;;;;;;;4.78;2.45;;;;;;;29.75;32.93;94883.31;4955853;28;20206;-85
2023/09/12 10:36:32;;;;;;;8.13;2.42;;;;;;;29.28;34.10;94884.31;4973505;28;20102;-89
2023/09/12 10:38:59;;;;;;;3.80;2.53;;;;;;;28.49;32.83;94895.69;4955794;28;20068;-91
2023/09/12 10:41:25;;;;;;;4.50;2.92;;;;;;;28.45;33.99;94891.97;4973277;28;20033;-89
2023/09/12 10:43:52;;;;;;;2.67;2.35;;;;;;;28.42;33.69;94889.88;4989743;28;20026;-91
2023/09/12 10:46:18;;;;;;;4.00;2.10;;;;;;;29.09;34.58;94886.16;4972641;28;20030;-93
2023/09/12 10:48:43;;;;;;;5.20;2.38;;;;;;;28.87;33.02;94882.44;4973112;28;20026;-90
2023/09/12 10:51:10;;;;;;;4.47;2.17;;;;;;;28.40;34.14;94893.91;4956565;28;20500;-89
2023/09/12 10:53:35;;;;;;;5.60;2.33;;;;;;;28.73;33.39;94883.16;4973109;28;20478;-86
2023/09/12 10:56:07;;;;;;;5.43;2.63;;;;;;;28.90;32.07;94884.56;4971343;28;20083;-92
2023/09/12 10:58:32;;;;;;;4.97;2.65;;;;;;;28.75;33.02;94880.19;4990772;28;20117;-86
2023/09/12 11:01:26;;;;;;;5.30;2.80;;;;;;;28.04;33.80;94875.59;4989464;28;20173;-92
2023/09/12 11:03:52;;;;;;;3.97;2.60;;;;;;;28.74;33.70;94862.59;4972392;28;20118;-90
2023/09/12 11:06:22;;;;;;;4.65;2.20;;;;;;;28.36;33.07;94861.69;4972995;28;20106;-90
2023/09/12 11:09:16;;;;;;;5.28;2.33;;;;;;;28.78;34.14;94858.28;4955774;28;20471;-90
2023/09/12 11:11:43;;;;;;;4.78;2.55;;;;;;;29.02;32.88;94856.38;4990357;28;20026;-91
2023/09/12 11:14:09;;;;;;;4.53;2.40;;;;;;;28.51;33.47;94853.53;4955829;28;20027;-90
2023/09/12 11:16:37;;;;;;;3.03;2.45;;;;;;;28.91;33.59;94852.25;4972764;28;20481;-92
2023/09/12 11:19:19;;;;;;;3.35;2.25;;;;;;;28.11;34.84;94854.00;4988686;28;20109;-91
2023/09/12 11:21:46;;;;;;;3.65;2.63;;;;;;;28.74;34.13;94852.72;4955347;28;20038;-89
2023/09/12 11:24:12;;;;;;;5.32;2.45;;;;;;;28.78;33.97;94845.75;4990100;28;20028;-91
2023/09/12 11:27:00;;;;;;;4.70;2.67;;;;;;;28.16;33.37;94840.59;4989261;28;20042;-85
2023/09/12 11:29:36;;;;;;;4.43;2.38;;;;;;;28.33;34.54;94845.47;4972928;28;20030;-93
2023/09/12 11:32:03;;;;;;;3.50;2.40;;;;;;;28.52;34.22;94841.78;4972348;28;20081;-91
2023/09/12 11:34:35;;;;;;;3.20;2.20;;;;;;;28.52;34.48;94835.66;4971630;28;20377;-90
2023/09/12 11:37:02;;;;;;;5.97;2.40;;;;;;;28.66;34.04;94837.38;4972418;28;20034;-91
2023/09/12 11:39:30;;;;;;;5.03;2.58;;;;;;;28.80;33.18;94842.03;4971539;28;20611;-86
2023/09/12 11:41:57;;;;;;;2.72;2.42;;;;;;;27.97;33.66;94837.84;4956019;28;20125;-90
2023/09/12 11:44:23;;;;;;;7.13;2.70;;;;;;;28.21;33.69;94832.56;4971709;28;20022;-91
2023/09/12 11:46:50;;;;;;;5.40;2.60;;;;;;;28.11;34.59;94832.69;4971979;28;20069;-89
2023/09/12 11:49:16;;;;;;;4.18;2.60;;;;;;;28.18;33.94;94831.28;4970551;28;20349;-88
2023/09/12 11:51:52;;;;;;;2.47;2.28;;;;;;;28.56;33.62;94826.81;4955160;28;20088;-90
2023/09/12 11:54:19;;;;;;;4.22;2.58;;;;;;;27.94;32.85;94830.41;4954445;28;20232;-85
2023/09/12 11:56:46;;;;;;;2.97;2.20;;;;;;;28.18;33.14;94827.81;4969942;28;20057;-87
2023/09/12 11:59:12;;;;;;;4.40;2.60;;;;;;;28.47;33.82;94825.06;4970591;28;20030;-91
2023/09/12 12:01:37;;;;;;;5.03;2.55;;;;;;;28.31;33.67;94826.31;4971487;28;20377;-88
2023/09/12 12:04:03;;;;;;;4.15;2.63;;;;;;;28.40;34.39;94817.41;4955420;28;20026;-92
2023/09/12 12:06:30;;;;;;;2.85;2.60;;;;;;;28.80;33.90;94821.47;4955231;28;20093;-93
2023/09/12 12:08:55;;;;;;;8.15;2.33;;;;;;;28.65;32.86;94817.13;4971762;28;20022;-92
2023/09/12 12:11:21;;;;;;;2.63;2.00;;;;;;;28.32;32.77;94817.25;4971992;28;20116;-92
2023/09/12 12:13:46;;;;;;;8.70;2.60;;;;;;;28.56;33.93;94813.47;4954749;28;20113;-91
2023/09/12 12:16:18;;;;;;;6.03;2.20;;;;;;;28.35;33.54;94809.50;4971579;28;20180;-90
2023/09/12 12:18:43;;;;;;;3.38;2.25;;;;;;;28.55;33.48;94805.75;4970603;28;20085;-86
2023/09/12 12:21:09;;;;;;;3.67;2.13;;;;;;;28.98;33.21;94809.22;4955598;28;20026;-92
2023/09/12 12:23:34;;;;;;;4.15;2.47;;;;;;;28.84;33.05;94803.00;4955101;28;20542;-92
2023/09/12 12:26:06;;;;;;;4.05;2.72;;;;;;;28.41;32.90;94797.69;4970538;28;20054;-84
2023/09/12 12:28:32;;;;;;;3.75;2.28;;;;;;;28.27;33.41;94796.78;4988742;28;20413;-90
2023/09/12 12:30:59;;;;;;;3.33;2.42;;;;;;;28.38;33.55;94800.13;4970615;28;20139;-92
2023/09/12 12:33:24;;;;;;;5.60;2.70;;;;;;;28.75;33.41;94800.19;4955331;28;20026;-90
2023/09/12 12:36:08;;;;;;;4.88;2.30;;;;;;;29.04;34.29;94805.38;4970760;28;20101;-92
2023/09/12 12:38:37;;;;;;;3.13;2.25;;;;;;;29.00;32.79;94804.38;4971278;28;20531;-84
2023/09/12 12:41:02;;;;;;;4.65;2.42;;;;;;;28.39;33.29;94801.69;4955410;28;20027;-90
2023/09/12 12:43:28;;;;;;;2.90;2.70;;;;;;;28.62;34.05;94787.53;4988268;28;20111;-87
2023/09/12 12:45:57;;;;;;;4.43;2.80;;;;;;;28.74;33.54;94794.06;4971261;28;20099;-88
2023/09/12 12:48:34;;;;;;;9.20;2.90;;;;;;;28.53;34.18;94787.41;4970017;28;20196;-90
2023/09/12 12:51:00;;;;;;;3.35;2.63;;;;;;;28.71;33.98;94788.50;4971872;28;20534;-92
2023/09/12 12:53:41;;;;;;;4.70;2.28;;;;;;;28.66;33.18;94792.06;4970028;28;20132;-90
2023/09/12 12:56:07;;;;;;;4.28;2.90;;;;;;;28.56;33.93;94794.03;4970942;28;20037;-92
2023/09/12 12:58:33;;;;;;;3.22;2.40;;;;;;;28.26;33.36;94789.84;4988136;28;20356;-87
2023/09/12 13:00:58;;;;;;;5.22;2.42;;;;;;;28.56;33.79;94786.81;4970889;28;20614;-90
2023/09/12 13:03:24;;;;;;;2.90;2.47;;;;;;;28.87;33.56;94787.22;4971010;28;20455;-91
2023/09/12 13:05:49;;;;;;;3.92;2.60;;;;;;;28.74;33.38;94783.41;4987710;28;20032;-92
2023/09/12 13:08:14;;;;;;;3.00;2.45;;;;;;;28.46;32.76;94781.63;4988927;28;20340;-90
2023/09/12 13:10:42;;;;;;;3.83;2.47;;;;;;;28.26;33.35;94787.19;4987711;28;20079;-91
2023/09/12 13:13:07;;;;;;;2.47;1.90;;;;;;;28.67;34.91;94771.53;4971416;28;20061;-92
2023/09/12 13:15:33;;;;;;;3.00;2.65;;;;;;;28.67;32.57;94780.28;4954313;28;20061;-89
2023/09/12 13:17:58;;;;;;;2.92;2.25;;;;;;;28.63;32.89;94775.81;4971797;28;20408;-84
2023/09/12 13:20:24;;;;;;;5.03;2.50;;;;;;;28.36;32.76;94775.63;4992145;28;20033;-92
2023/09/12 13:22:49;;;;;;;4.32;2.28;;;;;;;28.59;32.92;94780.91;4974297;28;20023;-92
2023/09/12 13:25:14;;;;;;;3.20;2.25;;;;;;;28.35;32.48;94790.03;4991988;28;20033;-89
2023/09/12 13:27:40;;;;;;;3.67;2.53;;;;;;;28.46;32.65;94775.50;4973925;28;20038;-91
2023/09/12 13:30:06;;;;;;;2.92;2.58;;;;;;;28.41;33.15;94779.03;4974470;28;20026;-83
2023/09/12 13:32:33;;;;;;;4.13;2.30;;;;;;;28.46;33.25;94770.94;4991220;28;20030;-91
2023/09/12 13:34:58;;;;;;;5.82;2.67;;;;;;;28.26;33.34;94771.19;4991099;28;20129;-90
2023/09/12 13:37:24;;;;;;;2.47;2.15;;;;;;;28.56;32.88;94773.50;4991735;28;20106;-87
2023/09/12 13:39:50;;;;;;;3.53;2.17;;;;;;;28.50;33.61;94776.50;4973773;28;20048;-91
2023/09/12 13:42:19;;;;;;;2.58;2.03;;;;;;;28.20;32.58;94769.69;4958263;28;20113;-89
2023/09/12 13:44:48;;;;;;;3.47;2.42;;;;;;;28.27;32.66;94772.81;4973824;28;20076;-90
2023/09/12 13:47:21;;;;;;;3.88;2.75;;;;;;;28.26;32.70;94768.53;4974994;28;20023;-91
2023/09/12 13:49:46;;;;;;;6.80;2.55;;;;;;;28.13;33.65;94767.38;4991848;28;20033;-88
2023/09/12 13:52:11;;;;;;;4.05;1.92;;;;;;;28.49;32.99;94765.03;4958203;28;20026;-90
2023/09/12 13:54:37;;;;;;;5.10;2.22;;;;;;;28.43;33.25;94771.53;4973830;28;20030;-92
2023/09/12 13:57:02;;;;;;;2.70;2.17;;;;;;;28.56;32.08;94768.16;4957797;28;20471;-90
2023/09/12 13:59:28;;;;;;;11.20;2.75;;;;;;;28.63;33.01;94765.94;4973784;28;20061;-91
2023/09/12 14:01:53;;;;;;;3.08;2.53;;;;;;;28.49;32.92;94774.91;4957049;28;20034;-90
2023/09/12 14:04:20;;;;;;;4.68;2.38;;;;;;;28.45;32.55;94768.59;4991630;28;20133;-90
2023/09/12 14:06:45;;;;;;;4.50;2.63;;;;;;;28.31;32.89;94773.81;4973169;28;20022;-89
2023/09/12 14:09:11;;;;;;;2.85;2.47;;;;;;;28.32;32.57;94774.63;4957887;28;20026;-90
2023/09/12 14:11:37;;;;;;;4.40;2.53;;;;;;;28.36;33.24;94771.09;4973216;28;20022;-91
2023/09/12 14:14:04;;;;;;;7.43;2.80;;;;;;;28.27;32.95;94773.59;4973910;28;20113;-91
2023/09/12 14:16:30;;;;;;;5.65;2.75;;;;;;;28.27;33.18;94775.47;4974140;28;20074;-93
2023/09/12 14:18:55;;;;;;;4.40;2.53;;;;;;;28.16;32.98;94771.31;4973318;28;20100;-91
2023/09/12 14:21:21;;;;;;;5.47;2.40;;;;;;;28.26;32.96;94768.53;4974104;28;20420;-90
2023/09/12 14:23:46;;;;;;;5.10;2.10;;;;;;;28.33;32.95;94766.31;4972234;28;20503;-88
2023/09/12 14:26:12;;;;;;;3.58;2.80;;;;;;;28.20;33.23;94767.03;4973851;28;20030;-90
2023/09/12 14:28:37;;;;;;;8.20;2.63;;;;;;;27.97;33.41;94763.25;4989816;28;20037;-88
2023/09/12 14:31:05;;;;;;;4.53;2.42;;;;;;;27.97;32.83;94765.13;4972811;28;20026;-90
2023/09/12 14:33:30;;;;;;;4.55;2.45;;;;;;;28.02;32.90;94765.88;4957441;28;20034;-91
2023/09/12 14:35:56;;;;;;;3.45;2.33;;;;;;;28.13;32.35;94771.91;4972817;28;20053;-87
2023/09/12 14:38:21;;;;;;;3.88;2.25;;;;;;;28.08;32.70;94763.97;4957105;28;20538;-91